Time;durP1;ratioP1;P1;durP2;ratioP2;P2;SDS_P1;SDS_P2;PMS_P1;PMS_P2;Temp;Humidity;BMP_temperature;BMP_pressure;BME280_temperature;BME280_humidity;BME280_pressure;Samples;Min_cycle;Max_cycle;Signal;HPM_P1;HPM_P2
2021/08/10 00:01:15;;;;;;;;;;;15.10;99.90;;;13.66;99.10;101287.09;3510537;40;102915;-40
2021/08/10 00:03:42;;;;;;;;;;;15.00;99.90;;;13.60;99.37;101297.03;3510307;40;102176;-40
2021/08/10 00:06:10;;;;;;;;;;;15.00;99.90;;;13.58;99.55;101288.19;3510694;40;102392;-39
2021/08/10 00:08:37;;;;;;;;;;;15.00;99.90;;;13.60;99.83;101287.97;3510596;40;102379;-41
2021/08/10 00:11:06;;;;;;;;;;;15.00;99.90;;;13.55;99.79;101291.38;3510487;40;102152;-39
2021/08/10 00:13:35;;;;;;;;;;;14.90;99.90;;;13.48;99.75;101291.41;3511556;40;102720;-39
2021/08/10 00:16:03;;;;;;;;;;;14.90;99.90;;;13.43;99.44;101285.78;3510020;40;102220;-39
2021/08/10 00:18:30;;;;;;;;;;;14.80;99.90;;;13.41;99.60;101289.75;3510209;40;103162;-39
2021/08/10 00:20:58;;;;;;;;;;;14.80;99.90;;;13.35;99.44;101289.56;3510519;40;102585;-39
2021/08/10 00:23:25;;;;;;;;;;;14.80;99.90;;;13.32;99.46;101289.16;3510353;40;103185;-39
2021/08/10 00:25:53;;;;;;;;;;;14.70;99.90;;;13.25;99.06;101283.72;3510197;40;102565;-40
2021/08/10 00:28:20;;;;;;;;;;;14.70;99.90;;;13.21;98.66;101288.81;3510440;40;102670;-40
2021/08/10 00:30:47;;;;;;;;;;;14.60;99.90;;;13.16;98.22;101290.50;3510571;40;102284;-39
2021/08/10 00:33:15;;;;;;;;;;;14.60;99.90;;;13.11;98.09;101293.91;3510627;40;102515;-39
2021/08/10 00:35:43;;;;;;;;;;;14.50;99.90;;;13.05;98.27;101290.16;3510435;40;102791;-39
2021/08/10 00:38:10;;;;;;;;;;;14.50;99.90;;;13.00;98.42;101280.91;3510418;40;102307;-39
2021/08/10 00:40:40;;;;;;;;;;;14.40;99.90;;;12.91;98.28;101274.81;3509457;40;102382;-40
2021/08/10 00:43:40;;;;;;;;;;;14.40;99.90;;;12.85;98.22;101286.66;3509452;40;104043;-39
2021/08/10 00:46:17;;;;;;;;;;;14.30;99.90;;;12.81;98.62;101288.97;3509386;40;102571;-39
2021/08/10 00:48:45;;;;;;;;;;;14.20;99.90;;;12.79;98.61;101286.47;3509767;40;102470;-39
2021/08/10 00:51:16;;;;;;;;;;;14.20;99.90;;;12.74;98.78;101274.47;3509075;40;103031;-39
2021/08/10 00:53:48;;;;;;;;;;;14.10;99.90;;;12.71;98.71;101281.19;3509533;40;102306;-39
2021/08/10 00:56:18;;;;;;;;;;;14.10;99.90;;;12.67;98.62;101274.47;3509333;40;102556;-39
2021/08/10 00:58:49;;;;;;;;;;;14.10;99.90;;;12.63;98.81;101271.34;3509489;40;103258;-39
2021/08/10 01:01:16;;;;;;;;;;;14.10;99.90;;;12.60;98.91;101270.94;3510274;40;102152;-39
2021/08/10 01:03:44;;;;;;;;;;;14.00;99.90;;;12.58;99.10;101273.88;3510397;40;102340;-39
2021/08/10 01:06:17;;;;;;;;;;;14.00;99.90;;;12.55;98.88;101268.00;3509150;40;104010;-39
2021/08/10 01:09:02;;;;;;;;;;;14.00;99.90;;;12.50;98.80;101274.97;3509179;40;102333;-39
2021/08/10 01:11:42;;;;;;;;;;;13.90;99.90;;;12.46;98.81;101270.13;3510599;40;102701;-39
2021/08/10 01:14:17;;;;;;;;;;;13.90;99.90;;;12.42;99.02;101274.34;3509194;40;103957;-39
2021/08/10 01:16:53;;;;;;;;;;;13.80;99.90;;;12.40;99.15;101269.09;3510814;40;102174;-40
2021/08/10 01:19:46;;;;;;;;;;;13.80;99.90;;;12.39;99.25;101269.31;3510293;40;104043;-39
2021/08/10 01:22:17;;;;;;;;;;;13.80;99.90;;;12.37;99.26;101262.16;3509163;40;102527;-39
2021/08/10 01:24:55;;;;;;;;;;;13.80;99.90;;;12.36;99.77;101268.69;3509615;40;104113;-40
2021/08/10 01:27:50;;;;;;;;;;;13.80;99.90;;;12.41;100.00;101270.75;3509958;40;102845;-39
2021/08/10 01:30:27;;;;;;;;;;;13.80;99.90;;;12.45;100.00;101268.44;3509142;40;102228;-39
2021/08/10 01:32:56;;;;;;;;;;;13.80;99.90;;;12.49;100.00;101264.22;3510381;40;102864;-39
2021/08/10 01:35:27;;;;;;;;;;;13.80;99.90;;;12.54;100.00;101263.59;3509079;40;103157;-39
2021/08/10 01:37:57;;;;;;;;;;;13.90;99.90;;;12.59;100.00;101259.13;3509149;40;102351;-39
2021/08/10 01:40:26;;;;;;;;;;;13.90;99.90;;;12.63;100.00;101251.34;3509125;40;103363;-39
2021/08/10 01:42:56;;;;;;;;;;;14.00;99.90;;;12.74;100.00;101244.34;3509232;40;102310;-39
2021/08/10 01:45:24;;;;;;;;;;;14.10;99.90;;;12.83;100.00;101242.22;3509758;40;104049;-39
2021/08/10 01:47:58;;;;;;;;;;;14.10;99.90;;;12.88;100.00;101245.13;3509195;40;102486;-39
2021/08/10 01:50:28;;;;;;;;;;;14.20;99.90;;;12.90;100.00;101243.03;3500822;40;102368;-39
2021/08/10 01:53:02;;;;;;;;;;;14.20;99.90;;;12.89;100.00;101239.47;3509011;40;102906;-39
2021/08/10 01:55:34;;;;;;;;;;;14.20;99.90;;;12.94;100.00;101238.78;3508779;40;105503;-39
2021/08/10 01:58:09;;;;;;;;;;;14.30;99.90;;;12.99;100.00;101243.63;3509737;40;102285;-39
2021/08/10 02:00:39;;;;;;;;;;;14.30;99.90;;;12.98;100.00;101237.28;3509648;40;103948;-39
2021/08/10 02:03:11;;;;;;;;;;;14.30;99.90;;;13.02;100.00;101240.44;3509349;40;104353;-40
2021/08/10 02:05:47;;;;;;;;;;;14.30;99.90;;;13.05;100.00;101240.84;3509961;40;104225;-39
2021/08/10 02:08:23;;;;;;;;;;;14.40;99.90;;;13.07;100.00;101243.34;3510231;40;104566;-39
2021/08/10 02:10:54;;;;;;;;;;;14.40;99.90;;;13.07;100.00;101248.81;3511238;40;103450;-39
2021/08/10 02:13:25;;;;;;;;;;;14.40;99.90;;;13.09;100.00;101247.56;3510323;40;102232;-39
2021/08/10 02:15:54;;;;;;;;;;;14.40;99.90;;;13.13;100.00;101238.91;3511315;40;104113;-39
2021/08/10 02:18:23;;;;;;;;;;;14.50;99.90;;;13.18;100.00;101250.03;3511049;40;102402;-39
2021/08/10 02:21:06;;;;;;;;;;;14.50;99.90;;;13.20;100.00;101247.91;3510226;40;103086;-39
2021/08/10 02:23:35;;;;;;;;;;;14.50;99.90;;;13.26;100.00;101251.69;3510224;40;102240;-40
2021/08/10 02:26:05;;;;;;;;;;;14.60;99.90;;;13.28;100.00;101255.91;3639891;22;104321;-40
2021/08/10 02:28:34;;;;;;;;;;;14.60;99.90;;;13.30;100.00;101259.25;3511324;40;102279;-40
2021/08/10 02:31:03;;;;;;;;;;;14.60;99.90;;;13.34;100.00;101259.63;3510476;40;103247;-40
2021/08/10 02:33:39;;;;;;;;;;;14.60;99.90;;;13.37;100.00;101271.00;3510478;40;103604;-40
2021/08/10 02:36:14;;;;;;;;;;;14.70;99.90;;;13.38;100.00;101267.19;3510182;40;104054;-40
2021/08/10 02:38:43;;;;;;;;;;;14.70;99.90;;;13.40;100.00;101269.72;3510290;40;103551;-40
2021/08/10 02:41:12;;;;;;;;;;;14.70;99.90;;;13.40;100.00;101274.38;3509908;40;105571;-40
2021/08/10 02:44:05;;;;;;;;;;;14.70;99.90;;;13.46;100.00;101276.25;3510086;40;103474;-39
2021/08/10 02:46:33;;;;;;;;;;;14.80;99.90;;;13.48;100.00;101283.19;3509939;40;105122;-40
2021/08/10 02:49:02;;;;;;;;;;;14.80;99.90;;;13.54;100.00;101283.38;3509998;40;103772;-40
2021/08/10 02:51:29;;;;;;;;;;;14.80;99.90;;;13.62;100.00;101278.47;3509968;40;105964;-39
2021/08/10 02:53:56;;;;;;;;;;;14.90;99.90;;;13.68;100.00;101306.91;3510010;40;103372;-39
2021/08/10 02:56:29;;;;;;;;;;;14.90;99.90;;;13.77;100.00;101316.53;3509733;40;105108;-40
2021/08/10 02:59:00;;;;;;;;;;;15.00;99.90;;;13.78;100.00;101320.94;3511232;40;103124;-39
2021/08/10 03:01:34;;;;;;;;;;;15.00;99.90;;;13.80;100.00;101320.75;3510875;40;104033;-39
2021/08/10 03:04:03;;;;;;;;;;;15.10;99.90;;;13.84;100.00;101321.97;3510766;40;102465;-38
2021/08/10 03:06:33;;;;;;;;;;;15.10;99.90;;;13.84;100.00;101327.47;3509947;40;104114;-39
2021/08/10 03:09:03;;;;;;;;;;;15.10;99.90;;;13.89;100.00;101322.13;3511107;40;104149;-40
2021/08/10 03:11:37;;;;;;;;;;;15.20;99.90;;;13.89;100.00;101330.38;3510108;40;103187;-39
2021/08/10 03:14:10;;;;;;;;;;;15.20;99.90;;;13.94;100.00;101322.31;3509632;40;104533;-40
2021/08/10 03:16:39;;;;;;;;;;;15.20;99.90;;;13.91;99.15;101325.50;3510596;40;104047;-39
2021/08/10 03:19:09;;;;;;;;;;;15.20;99.90;;;13.84;99.76;101319.22;3509856;40;103319;-39
2021/08/10 03:21:41;;;;;;;;;;;15.20;99.90;;;13.81;99.09;101317.75;3509926;40;103100;-39
2021/08/10 03:24:10;;;;;;;;;;;15.10;99.90;;;13.74;99.44;101324.34;3511310;40;102135;-39
2021/08/10 03:26:40;;;;;;;;;;;15.10;99.90;;;13.70;98.95;101314.88;3511031;40;103366;-39
2021/08/10 03:29:09;;;;;;;;;;;15.00;99.90;;;13.63;98.57;101320.41;3510847;40;103766;-39
2021/08/10 03:31:39;;;;;;;;;;;15.00;99.90;;;13.59;99.60;101316.44;3509898;40;103103;-39
2021/08/10 03:34:11;;;;;;;;;;;14.90;99.90;;;13.52;99.83;101308.25;3509926;40;102451;-39
2021/08/10 03:36:41;;;;;;;;;;;14.90;99.90;;;13.48;100.00;101301.53;3510976;40;105033;-39
2021/08/10 03:39:11;;;;;;;;;;;14.80;99.90;;;13.44;100.00;101294.81;3510275;40;102240;-39
2021/08/10 03:41:39;;;;;;;;;;;14.80;99.90;;;13.42;100.00;101288.69;3510710;40;104550;-39
2021/08/10 03:44:07;;;;;;;;;;;14.80;99.90;;;13.41;100.00;101295.22;3509824;40;103911;-39
2021/08/10 03:46:35;;;;;;;;;;;14.70;99.90;;;13.37;100.00;101314.00;3510016;40;103193;-39
2021/08/10 03:49:04;;;;;;;;;;;14.70;99.90;;;13.39;100.00;101295.44;3509837;40;103549;-39
2021/08/10 03:51:35;;;;;;;;;;;14.70;99.90;;;13.37;100.00;101309.38;3510867;40;105418;-39
2021/08/10 03:54:06;;;;;;;;;;;14.70;99.90;;;13.35;100.00;101300.53;3509655;40;102201;-39
2021/08/10 03:56:35;;;;;;;;;;;14.70;99.90;;;13.34;100.00;101298.84;3509957;40;102492;-39
2021/08/10 03:59:03;;;;;;;;;;;14.70;99.90;;;13.35;100.00;101286.81;3510626;40;102580;-39
2021/08/10 04:01:36;;;;;;;;;;;14.70;99.90;;;13.34;100.00;101289.78;3509802;40;104138;-40
2021/08/10 04:04:07;;;;;;;;;;;14.70;99.90;;;13.32;100.00;101270.84;3510819;40;102354;-40
2021/08/10 04:06:37;;;;;;;;;;;14.60;99.90;;;13.34;100.00;101265.13;3510560;40;105059;-39
2021/08/10 04:09:06;;;;;;;;;;;14.70;99.90;;;13.31;100.00;101268.28;3509813;40;102190;-39
2021/08/10 04:11:38;;;;;;;;;;;14.70;99.90;;;13.29;100.00;101256.72;3511023;40;102177;-39
2021/08/10 04:14:10;;;;;;;;;;;14.60;99.90;;;13.26;100.00;101257.16;3509671;40;102267;-39
2021/08/10 04:16:47;;;;;;;;;;;14.60;99.90;;;13.18;100.00;101250.03;3510654;40;104286;-39
2021/08/10 04:19:14;;;;;;;;;;;14.60;99.90;;;13.09;100.00;101250.31;3510012;40;102865;-40
2021/08/10 04:21:47;;;;;;;;;;;14.50;99.90;;;13.01;100.00;101261.53;3509337;40;122922;-39
2021/08/10 04:24:14;;;;;;;;;;;14.40;99.90;;;12.92;100.00;101269.13;3510789;40;102226;-39
2021/08/10 04:26:41;;;;;;;;;;;14.40;99.90;;;12.87;100.00;101262.63;3509708;40;102177;-39
2021/08/10 04:29:10;;;;;;;;;;;14.30;99.90;;;12.82;100.00;101267.91;3509840;40;102935;-39
2021/08/10 04:31:38;;;;;;;;;;;14.20;99.90;;;12.80;100.00;101271.72;3510154;40;103972;-39
2021/08/10 04:34:05;;;;;;;;;;;14.20;99.90;;;12.84;100.00;101283.06;3511047;40;102528;-39
2021/08/10 04:36:34;;;;;;;;;;;14.20;99.90;;;12.83;100.00;101283.28;3509595;40;103268;-40
2021/08/10 04:39:03;;;;;;;;;;;14.20;99.90;;;12.83;100.00;101291.50;3509377;40;102509;-39
2021/08/10 04:41:30;;;;;;;;;;;14.20;99.90;;;12.77;100.00;101294.06;3509629;40;105001;-40
2021/08/10 04:44:00;;;;;;;;;;;14.20;99.90;;;12.76;100.00;101297.84;3509291;40;102330;-39
2021/08/10 04:46:29;;;;;;;;;;;14.20;99.90;;;12.74;100.00;101290.91;3509264;40;103469;-40
2021/08/10 04:48:57;;;;;;;;;;;14.10;99.90;;;12.74;100.00;101288.16;3509665;40;102595;-39
2021/08/10 04:51:25;;;;;;;;;;;14.10;99.90;;;12.72;100.00;101273.84;3509274;40;104187;-40
2021/08/10 04:53:52;;;;;;;;;;;14.10;99.90;;;12.71;100.00;101280.38;3510610;40;102394;-39
2021/08/10 04:56:22;;;;;;;;;;;14.10;99.90;;;12.69;100.00;101280.56;3509489;40;105381;-39
2021/08/10 04:58:49;;;;;;;;;;;14.10;99.90;;;12.72;100.00;101277.41;3509500;40;102123;-40
2021/08/10 05:01:17;;;;;;;;;;;14.10;99.90;;;12.68;100.00;101276.16;3509380;40;105691;-39
2021/08/10 05:03:46;;;;;;;;;;;14.10;99.90;;;12.72;100.00;101277.41;3509568;40;104594;-39
2021/08/10 05:06:14;;;;;;;;;;;14.10;99.90;;;12.79;100.00;101283.72;3509110;40;105152;-40
2021/08/10 05:08:42;;;;;;;;;;;14.10;99.90;;;12.80;100.00;101276.34;3509600;40;103240;-39
2021/08/10 05:11:11;;;;;;;;;;;14.10;99.90;;;12.75;100.00;101273.41;3509276;40;104773;-39
2021/08/10 05:13:39;;;;;;;;;;;14.10;99.90;;;12.80;100.00;101282.66;3509487;40;103646;-39
2021/08/10 05:16:09;;;;;;;;;;;14.10;99.90;;;12.85;100.00;101294.88;3510340;40;102274;-39
2021/08/10 05:18:37;;;;;;;;;;;14.20;99.90;;;12.92;100.00;101301.16;3509300;40;102213;-39
2021/08/10 05:21:05;;;;;;;;;;;14.20;99.90;;;13.00;100.00;101298.19;3509238;40;102210;-40
2021/08/10 05:23:33;;;;;;;;;;;14.30;99.90;;;13.06;100.00;101301.94;3510617;40;102329;-39
2021/08/10 05:26:02;;;;;;;;;;;14.30;99.90;;;13.08;100.00;101300.66;3510165;40;103261;-39
2021/08/10 05:28:34;;;;;;;;;;;14.40;99.90;;;13.14;100.00;101300.84;3509320;40;102336;-40
2021/08/10 05:31:04;;;;;;;;;;;14.40;99.90;;;13.19;100.00;101306.50;3509306;40;103235;-40
2021/08/10 05:33:33;;;;;;;;;;;14.50;99.90;;;13.23;100.00;101311.34;3508965;40;102333;-39
2021/08/10 05:36:03;;;;;;;;;;;14.50;99.90;;;13.32;100.00;101314.69;3509308;40;103172;-40
2021/08/10 05:38:31;;;;;;;;;;;14.60;99.90;;;13.44;100.00;101320.34;3511097;40;102984;-40
2021/08/10 05:41:00;;;;;;;;;;;14.60;99.90;;;13.53;100.00;101309.97;3510203;40;102421;-40
2021/08/10 05:43:27;;;;;;;;;;;14.70;99.90;;;13.54;100.00;101303.41;3511190;40;102948;-40
2021/08/10 05:45:57;;;;;;;;;;;14.80;99.90;;;13.68;100.00;101315.13;3510171;40;103184;-40
2021/08/10 05:48:25;;;;;;;;;;;14.90;99.90;;;13.85;100.00;101315.44;3510206;40;102449;-40
2021/08/10 05:50:56;;;;;;;;;;;15.00;99.90;;;13.94;100.00;101319.56;3511752;40;102277;-39
2021/08/10 05:53:23;;;;;;;;;;;15.10;99.90;;;14.03;100.00;101316.53;3511562;40;102392;-41
2021/08/10 05:55:51;;;;;;;;;;;15.20;99.90;;;14.21;100.00;101319.34;3511427;40;102326;-40
2021/08/10 05:58:19;;;;;;;;;;;15.30;99.90;;;14.34;100.00;101323.03;3510222;40;102520;-40
2021/08/10 06:00:46;;;;;;;;;;;15.40;99.90;;;14.47;99.92;101327.56;3510225;40;103093;-40
2021/08/10 06:03:14;;;;;;;;;;;15.50;99.90;;;14.63;99.54;101329.69;3510247;40;102486;-39
2021/08/10 06:05:41;;;;;;;;;;;15.70;99.90;;;14.79;98.77;101335.72;3510825;40;102469;-40
2021/08/10 06:08:09;;;;;;;;;;;15.80;99.90;;;14.93;98.30;101328.97;3510196;40;104111;-40
2021/08/10 06:10:44;;;;;;;;;;;16.00;99.90;;;15.05;97.80;101330.97;3510351;40;102322;-40
2021/08/10 06:13:11;;;;;;;;;;;16.00;99.90;;;15.14;97.56;101326.81;3510007;40;102797;-40
2021/08/10 06:15:41;;;;;;;;;;;16.20;99.90;;;15.14;96.32;101318.59;3510073;40;103098;-40
2021/08/10 06:18:08;;;;;;;;;;;16.20;99.90;;;15.27;95.79;101308.50;3510042;40;102431;-40
2021/08/10 06:20:36;;;;;;;;;;;16.30;99.90;;;15.36;95.97;101313.41;3511302;40;103252;-40
2021/08/10 06:23:05;;;;;;;;;;;16.40;99.90;;;15.48;96.21;101315.38;3511126;40;102876;-40
2021/08/10 06:25:41;;;;;;;;;;;16.40;99.90;;;15.71;96.99;101320.13;3509817;40;104103;-40
2021/08/10 06:28:09;;;;;;;;;;;16.60;99.90;;;15.89;95.03;101316.47;3510509;40;103443;-40
2021/08/10 06:30:38;;;;;;;;;;;16.80;99.90;;;15.99;94.26;101320.59;3509936;40;104101;-40
2021/08/10 06:33:06;;;;;;;;;;;16.90;99.90;;;15.99;94.09;101315.06;3510384;40;102186;-40
2021/08/10 06:35:33;;;;;;;;;;;17.00;99.90;;;16.02;92.33;101317.34;3510266;40;105381;-40
2021/08/10 06:38:01;;;;;;;;;;;17.00;99.90;;;16.14;93.30;101317.38;3510002;40;102634;-40
2021/08/10 06:40:35;;;;;;;;;;;17.10;99.90;;;16.37;94.37;101313.78;3510354;40;103140;-40
2021/08/10 06:43:02;;;;;;;;;;;17.30;99.90;;;16.37;91.97;101322.03;3510137;40;103605;-40
2021/08/10 06:45:31;;;;;;;;;;;17.40;99.90;;;16.24;91.78;101317.59;3510582;40;103060;-40
2021/08/10 06:47:58;;;;;;;;;;;17.40;99.90;;;16.23;92.51;101332.44;3510683;40;103078;-40
2021/08/10 06:50:33;;;;;;;;;;;17.30;99.90;;;16.47;92.75;101327.78;3509941;40;104116;-40
2021/08/10 06:53:01;;;;;;;;;;;17.40;99.90;;;16.59;91.37;101336.06;3510213;40;104617;-40
2021/08/10 06:55:31;;;;;;;;;;;17.60;99.90;;;16.59;90.54;101332.44;3509811;40;104369;-40
2021/08/10 06:58:05;;;;;;;;;;;17.60;99.90;;;16.60;90.54;101329.47;3510031;40;102428;-40
2021/08/10 07:00:33;;;;;;;;;;;17.70;99.90;;;16.68;90.76;101342.00;3510034;40;103265;-40
2021/08/10 07:03:06;;;;;;;;;;;17.70;99.90;;;16.73;90.75;101333.03;3510114;40;104095;-40
2021/08/10 07:05:35;;;;;;;;;;;17.70;99.90;;;16.77;90.29;101337.81;3511094;40;102259;-40
2021/08/10 07:08:05;;;;;;;;;;;17.70;99.90;;;17.13;91.57;101336.94;3510206;40;102261;-40
2021/08/10 07:10:37;;;;;;;;;;;18.00;99.90;;;17.37;88.51;101330.25;3510113;40;102275;-40
2021/08/10 07:13:04;;;;;;;;;;;18.20;99.90;;;17.46;88.41;101327.94;3511213;40;103605;-40
2021/08/10 07:15:34;;;;;;;;;;;18.30;99.90;;;17.47;87.17;101329.63;3510604;40;105147;-40
2021/08/10 07:18:07;;;;;;;;;;;18.40;99.90;;;17.49;87.81;101329.34;3510082;40;102489;-40
2021/08/10 07:20:35;;;;;;;;;;;18.40;99.90;;;17.56;88.14;101338.34;3510031;40;103070;-40
2021/08/10 07:23:05;;;;;;;;;;;18.50;99.90;;;17.54;85.73;101343.28;3509931;40;102206;-40
2021/08/10 07:25:40;;;;;;;;;;;18.50;99.90;;;17.73;86.53;101343.03;3509635;40;105901;-40
2021/08/10 07:28:08;;;;;;;;;;;18.60;99.90;;;17.85;85.41;101343.81;3511020;40;102835;-40
2021/08/10 07:30:35;;;;;;;;;;;18.70;99.90;;;18.02;84.10;101341.09;3509746;40;103198;-40
2021/08/10 07:33:03;;;;;;;;;;;18.80;99.90;;;18.24;85.68;101343.13;3510842;40;102336;-40
2021/08/10 07:35:31;;;;;;;;;;;19.00;99.90;;;18.21;84.08;101340.88;3510780;40;105090;-40
2021/08/10 07:37:59;;;;;;;;;;;19.00;99.90;;;18.27;85.39;101342.63;3509776;40;102785;-40
2021/08/10 07:40:30;;;;;;;;;;;19.10;99.90;;;18.49;84.59;101344.59;3510441;40;103090;-40
2021/08/10 07:43:01;;;;;;;;;;;19.30;99.90;;;18.65;82.53;101342.91;3510072;40;102559;-40
2021/08/10 07:45:28;;;;;;;;;;;19.50;99.90;;;18.78;81.55;101347.22;3510137;40;105198;-40
2021/08/10 07:48:00;;;;;;;;;;;19.60;99.90;;;18.86;80.61;101345.97;3510587;40;103559;-41
2021/08/10 07:50:31;;;;;;;;;;;19.60;99.90;;;18.93;80.79;101338.31;3509780;40;103221;-40
2021/08/10 07:52:58;;;;;;;;;;;19.70;99.90;;;19.01;78.49;101345.34;3511117;40;102702;-41
2021/08/10 07:55:25;;;;;;;;;;;19.90;99.90;;;19.06;78.79;101348.19;3509769;40;104117;-40
2021/08/10 07:57:53;;;;;;;;;;;19.90;99.90;;;19.10;81.06;101354.84;3510457;40;104025;-40
2021/08/10 08:00:21;;;;;;;;;;;19.90;99.90;;;19.04;77.51;101350.38;3510638;40;105014;-40
2021/08/10 08:02:49;;;;;;;;;;;19.90;99.90;;;19.05;78.91;101357.56;3509554;40;104558;-40
2021/08/10 08:05:17;;;;;;;;;;;19.90;99.90;;;19.09;80.42;101358.72;3509623;40;103209;-40
2021/08/10 08:07:44;;;;;;;;;;;19.90;99.90;;;19.13;80.19;101343.28;3510444;40;102772;-40
2021/08/10 08:10:12;;;;;;;;;;;19.90;99.90;;;19.18;79.34;101346.09;3509761;40;102686;-40
2021/08/10 08:12:41;;;;;;;;;;;20.00;99.90;;;19.22;79.32;101349.19;3509923;40;103010;-40
2021/08/10 08:15:10;;;;;;;;;;;20.00;99.90;;;19.24;79.81;101344.25;3510571;40;105021;-40
2021/08/10 08:17:37;;;;;;;;;;;20.10;99.90;;;19.25;78.56;101334.84;3510463;40;102342;-40
2021/08/10 08:20:15;;;;;;;;;;;20.10;99.90;;;19.24;78.23;101344.25;3509673;40;102218;-40
2021/08/10 08:22:45;;;;;;;;;;;20.10;99.90;;;19.18;79.24;101331.44;3509574;40;103485;-41
2021/08/10 08:27:49;;;;;;;;;;;20.10;99.90;;;19.35;77.89;101337.72;3502556;40;103212;-40
2021/08/10 08:30:18;;;;;;;;;;;20.20;99.90;;;19.47;75.88;101342.28;3500045;40;103224;-40
2021/08/10 08:32:46;;;;;;;;;;;20.30;99.90;;;19.47;75.53;101340.34;3500180;40;102935;-40
2021/08/10 08:35:14;;;;;;;;;;;20.30;99.90;;;19.49;75.67;101340.09;3501331;40;104184;-40
2021/08/10 08:37:42;;;;;;;;;;;20.40;99.90;;;19.51;74.51;101335.97;3490371;40;102505;-40
2021/08/10 08:40:10;;;;;;;;;;;20.40;99.90;;;19.40;74.91;101335.03;3490187;40;104147;-40
2021/08/10 08:42:41;;;;;;;;;;;20.40;99.90;;;19.42;76.50;101334.75;3491492;40;102829;-40
2021/08/10 08:45:10;;;;;;;;;;;20.40;99.90;;;19.48;74.16;101332.88;3491159;40;105293;-40
2021/08/10 08:47:41;;;;;;;;;;;20.40;99.90;;;19.33;73.93;101339.09;3491790;40;102249;-40
2021/08/10 08:50:10;;;;;;;;;;;20.40;99.90;;;19.40;74.68;101337.81;3490465;40;103097;-40
2021/08/10 08:52:40;;;;;;;;;;;20.40;99.90;;;19.38;75.04;101337.22;3490248;40;102256;-40
2021/08/10 08:55:09;;;;;;;;;;;20.30;99.90;;;19.42;75.79;101339.47;3489935;40;105775;-40
2021/08/10 08:57:36;;;;;;;;;;;20.40;99.90;;;19.40;75.60;101346.09;3490198;40;104442;-40
2021/08/10 09:00:04;;;;;;;;;;;20.30;99.90;;;19.30;76.13;101350.69;3491085;40;103496;-40
2021/08/10 09:02:33;;;;;;;;;;;20.30;99.90;;;19.22;76.50;101346.44;3506556;40;102943;-40
2021/08/10 09:05:01;;;;;;;;;;;20.20;99.90;;;19.22;77.54;101346.44;3490925;40;104100;-40
2021/08/10 09:07:29;;;;;;;;;;;20.20;99.90;;;19.15;76.56;101352.16;3490305;40;102566;-40
2021/08/10 09:10:08;;;;;;;;;;;20.20;99.90;;;19.21;78.71;101355.81;3491121;40;103963;-39
2021/08/10 09:12:58;;;;;;;;;;;20.20;99.90;;;19.24;78.26;101356.16;3489813;40;104429;-40
2021/08/10 09:15:33;;;;;;;;;;;20.20;99.90;;;19.28;78.55;101347.34;3490819;40;102303;-40
2021/08/10 09:18:23;;;;;;;;;;;20.20;99.90;;;19.28;78.73;101339.84;3491540;40;102466;-40
2021/08/10 09:21:10;;;;;;;;;;;20.20;99.90;;;19.26;80.31;101348.44;3490263;40;105035;-40
2021/08/10 09:23:45;;;;;;;;;;;20.20;99.90;;;19.20;79.32;101338.38;3490090;40;103124;-40
2021/08/10 09:26:20;;;;;;;;;;;20.20;99.90;;;19.19;78.84;101331.19;3489936;40;103115;-40
2021/08/10 09:28:49;;;;;;;;;;;20.10;99.90;;;19.20;80.03;101327.31;3491083;40;102829;-40
2021/08/10 09:31:48;;;;;;;;;;;20.10;99.90;;;19.21;79.79;101328.16;3490860;40;102170;-40
2021/08/10 09:34:27;;;;;;;;;;;20.10;99.90;;;19.18;80.93;101329.50;3485229;40;102598;-40
2021/08/10 09:36:58;;;;;;;;;;;20.10;99.90;;;19.21;82.41;101323.44;3490157;40;103431;-40
2021/08/10 09:39:34;;;;;;;;;;;20.10;99.90;;;19.22;80.25;101324.31;3489939;40;102426;-40
2021/08/10 09:42:12;;;;;;;;;;;20.10;99.90;;;19.35;79.58;101325.84;3490063;40;104441;-40
2021/08/10 09:45:05;;;;;;;;;;;20.20;99.90;;;19.53;78.65;101330.16;3489808;40;102835;-40
2021/08/10 09:47:41;;;;;;;;;;;20.30;99.90;;;19.67;79.41;101331.44;3489736;40;102368;-40
2021/08/10 09:50:23;;;;;;;;;;;20.40;99.90;;;19.79;79.80;101327.66;3490001;40;103089;-40
2021/08/10 09:52:50;;;;;;;;;;;20.50;99.90;;;19.98;77.97;101331.75;3489775;40;105802;-40
2021/08/10 09:55:19;;;;;;;;;;;20.70;99.90;;;20.06;75.42;101324.88;3490911;40;102459;-39
2021/08/10 09:58:03;;;;;;;;;;;20.80;99.90;;;20.00;74.54;101330.66;3489965;40;105671;-40
2021/08/10 10:00:39;;;;;;;;;;;20.90;99.90;;;20.08;75.79;101331.00;3489718;40;102499;-40
2021/08/10 10:03:15;;;;;;;;;;;20.90;99.90;;;20.34;78.17;101330.34;3489741;40;104276;-40
2021/08/10 10:05:46;;;;;;;;;;;21.10;99.90;;;20.36;77.36;101331.75;3489482;40;102206;-40
2021/08/10 10:08:18;;;;;;;;;;;21.20;99.90;;;20.38;75.13;101325.94;3489457;40;104075;-40
2021/08/10 10:10:48;;;;;;;;;;;21.20;99.90;;;20.43;75.71;101327.91;3489477;40;102331;-40
2021/08/10 10:13:17;;;;;;;;;;;21.30;99.90;;;20.52;75.73;101334.59;3489328;40;102273;-40
2021/08/10 10:15:45;;;;;;;;;;;21.30;99.90;;;20.55;75.20;101328.53;3490741;40;102336;-40
2021/08/10 10:18:13;;;;;;;;;;;21.30;99.90;;;20.58;73.93;101332.72;3490643;40;103026;-40
2021/08/10 10:20:44;;;;;;;;;;;21.40;99.90;;;20.48;73.53;101334.34;3490326;40;102878;-40
2021/08/10 10:23:22;;;;;;;;;;;21.30;99.90;;;20.54;71.86;101335.19;3490634;40;102329;-40
2021/08/10 10:25:52;;;;;;;;;;;21.40;99.90;;;20.59;74.42;101329.69;3491700;40;103099;-39
2021/08/10 10:28:20;;;;;;;;;;;21.40;99.90;;;20.68;73.33;101330.00;3491874;40;103308;-40
2021/08/10 10:30:49;;;;;;;;;;;21.40;99.90;;;20.85;75.31;101332.63;3491833;40;102299;-40
2021/08/10 10:33:17;;;;;;;;;;;21.60;99.90;;;20.97;72.45;101335.19;3492161;40;102175;-40
2021/08/10 10:35:45;;;;;;;;;;;21.70;99.90;;;21.01;70.21;101333.53;3491770;40;102377;-39
2021/08/10 10:38:13;;;;;;;;;;;21.80;99.90;;;21.09;71.82;101337.72;3491835;40;103135;-40
2021/08/10 10:40:41;;;;;;;;;;;21.90;99.90;;;21.00;69.55;101331.88;3491975;40;102552;-40
2021/08/10 10:43:11;;;;;;;;;;;21.90;99.90;;;20.88;71.09;101334.00;3491582;40;102282;-40
2021/08/10 10:45:42;;;;;;;;;;;21.90;99.90;;;20.81;72.47;101331.47;3491869;40;102127;-40
2021/08/10 10:48:27;;;;;;;;;;;21.70;99.90;;;20.92;73.57;101332.34;3491640;40;104120;-40
2021/08/10 10:51:26;;;;;;;;;;;21.70;99.90;;;21.20;73.00;101325.56;3491875;40;102206;-41
2021/08/10 10:54:23;;;;;;;;;;;21.90;99.90;;;21.48;70.39;101334.50;3487547;40;103162;-40
2021/08/10 10:56:55;;;;;;;;;;;22.00;99.90;;;21.69;71.44;101329.84;3492223;40;102542;-40
2021/08/10 10:59:33;;;;;;;;;;;22.30;99.90;;;21.79;71.05;101328.22;3492444;40;102283;-40
2021/08/10 11:02:10;;;;;;;;;;;22.40;99.90;;;21.84;67.88;101329.03;3491946;40;102141;-40
2021/08/10 11:04:38;;;;;;;;;;;22.50;99.90;;;21.87;69.32;101329.56;3491567;40;102933;-40
2021/08/10 11:07:37;;;;;;;;;;;22.60;99.90;;;21.89;67.13;101328.19;3491486;40;102491;-41
2021/08/10 11:10:06;;;;;;;;;;;22.70;99.90;;;21.97;65.84;101324.88;3491825;40;102262;-40
2021/08/10 11:12:34;;;;;;;;;;;22.80;99.90;;;21.89;64.72;101327.38;3491900;40;102407;-40
2021/08/10 11:15:01;;;;;;;;;;;22.80;99.90;;;21.79;66.85;101323.47;3491430;40;104108;-40
2021/08/10 11:17:29;;;;;;;;;;;22.70;99.90;;;21.73;67.47;101323.75;3491856;40;102132;-40
2021/08/10 11:19:56;;;;;;;;;;;22.60;99.90;;;21.95;64.84;101321.53;3491968;40;102342;-42